createdAt,value
2023-03-12T00:05:23.570Z,14.40
2023-03-12T00:15:23.567Z,12.60
2023-03-12T00:25:23.591Z,11.70
2023-03-12T00:35:23.541Z,12.10
2023-03-12T00:45:23.560Z,13.30
2023-03-12T00:55:23.582Z,12.80
2023-03-12T01:05:23.566Z,17.40
2023-03-12T01:15:23.675Z,14.60
2023-03-12T01:25:23.558Z,12.20
2023-03-12T01:35:23.637Z,13.50
2023-03-12T01:45:23.579Z,14.20
2023-03-12T01:55:23.586Z,20.50
2023-03-12T02:05:23.599Z,16.40
2023-03-12T02:15:23.612Z,18.00
2023-03-12T02:25:23.584Z,12.60
2023-03-12T02:35:23.608Z,13.50
2023-03-12T02:45:23.607Z,12.20
2023-03-12T02:55:23.590Z,12.30
2023-03-12T03:05:23.599Z,12.60
2023-03-12T03:15:23.684Z,11.80
2023-03-12T03:25:23.610Z,12.50
2023-03-12T03:35:23.634Z,12.90
2023-03-12T03:45:23.603Z,12.80
2023-03-12T03:55:23.629Z,14.00
2023-03-12T04:05:23.648Z,13.20
2023-03-12T04:15:23.630Z,12.40
2023-03-12T04:25:23.643Z,12.90
2023-03-12T04:35:23.589Z,11.40
2023-03-12T04:45:23.667Z,12.50
2023-03-12T04:55:23.594Z,12.20
2023-03-12T05:05:23.643Z,12.10
2023-03-12T05:15:23.616Z,11.30
2023-03-12T05:25:23.633Z,12.20
2023-03-12T05:35:23.644Z,12.70
2023-03-12T05:45:23.619Z,12.10
2023-03-12T05:55:23.656Z,11.50
2023-03-12T06:05:23.655Z,11.70
2023-03-12T06:15:23.652Z,12.50
2023-03-12T06:25:23.661Z,13.20
2023-03-12T06:35:23.690Z,12.00
2023-03-12T06:45:23.630Z,15.60
2023-03-12T06:55:23.624Z,14.80
2023-03-12T07:05:23.756Z,16.70
2023-03-12T07:15:23.672Z,15.70
2023-03-12T07:25:23.724Z,17.10
2023-03-12T07:35:24.004Z,17.40
2023-03-12T07:45:23.792Z,17.20
2023-03-12T07:55:23.669Z,18.10
2023-03-12T08:05:23.689Z,19.70
2023-03-12T08:15:23.669Z,18.30
2023-03-12T08:25:23.787Z,20.00
2023-03-12T08:35:23.734Z,17.40
2023-03-12T08:45:23.663Z,18.10
2023-03-12T08:55:23.686Z,18.20
2023-03-12T09:05:23.717Z,17.00
2023-03-12T09:15:23.723Z,16.40
2023-03-12T09:25:23.712Z,19.40
2023-03-12T09:35:23.689Z,19.80
2023-03-12T09:45:23.716Z,21.50
2023-03-12T09:55:23.727Z,23.60
2023-03-12T10:05:23.876Z,16.80
2023-03-12T10:15:23.715Z,17.50
2023-03-12T10:25:23.704Z,16.00
2023-03-12T10:35:23.790Z,15.70
2023-03-12T10:45:23.714Z,16.40
2023-03-12T10:55:23.905Z,10.60
2023-03-12T11:05:23.717Z,14.00
2023-03-12T11:15:23.746Z,14.10
2023-03-12T11:25:23.799Z,9.20
2023-03-12T11:35:23.791Z,3.90
2023-03-12T11:45:23.732Z,4.80
2023-03-12T11:55:23.768Z,4.90
2023-03-12T12:05:23.774Z,6.70
2023-03-12T12:15:23.845Z,5.10
2023-03-12T12:25:23.778Z,10.10
2023-03-12T12:45:23.787Z,6.40
2023-03-12T12:55:23.784Z,5.30
2023-03-12T13:05:23.813Z,3.60
2023-03-12T13:15:23.799Z,5.90
2023-03-12T13:25:23.800Z,6.60
2023-03-12T13:35:23.789Z,6.40
2023-03-12T13:45:23.827Z,7.60
2023-03-12T13:55:23.820Z,6.00
2023-03-12T14:05:23.821Z,6.10
2023-03-12T14:15:23.786Z,6.90
2023-03-12T14:25:23.821Z,9.10
2023-03-12T14:35:23.833Z,7.30
2023-03-12T14:45:23.814Z,9.50
2023-03-12T14:55:23.835Z,13.90
2023-03-12T15:05:23.828Z,14.00
2023-03-12T15:15:23.817Z,14.80
2023-03-12T15:25:23.950Z,16.30
2023-03-12T15:35:23.939Z,16.20
2023-03-12T15:45:23.971Z,15.90
2023-03-12T15:55:26.685Z,16.30
2023-03-12T16:05:23.861Z,15.90
2023-03-12T16:15:23.870Z,17.90
2023-03-12T16:25:23.829Z,16.40
2023-03-12T16:35:23.929Z,18.70
2023-03-12T16:45:23.840Z,17.20
2023-03-12T16:55:23.876Z,16.80
2023-03-12T17:05:23.841Z,17.20
2023-03-12T17:15:23.841Z,39.30
2023-03-12T17:25:23.860Z,17.80
2023-03-12T17:35:24.010Z,22.00
2023-03-12T17:45:23.860Z,20.00
2023-03-12T17:55:23.893Z,28.70
2023-03-12T18:05:23.867Z,17.20
2023-03-12T18:15:23.877Z,20.20
2023-03-12T18:25:23.910Z,21.10
2023-03-12T18:35:23.959Z,18.90
2023-03-12T18:45:23.883Z,19.20
2023-03-12T18:55:23.931Z,18.50
2023-03-12T19:05:23.953Z,17.80
2023-03-12T19:15:24.074Z,19.00
2023-03-12T19:25:23.916Z,18.80
2023-03-12T19:35:23.968Z,20.70
2023-03-12T19:45:24.015Z,20.60
2023-03-12T19:55:23.909Z,20.20
2023-03-12T20:05:23.958Z,20.10
2023-03-12T20:15:23.913Z,22.30
2023-03-12T20:25:23.925Z,19.20
2023-03-12T20:35:23.936Z,21.90
2023-03-12T20:45:23.924Z,19.90
2023-03-12T20:55:23.925Z,20.50
2023-03-12T21:05:25.060Z,21.80
2023-03-12T21:15:23.965Z,16.50
2023-03-12T21:25:23.957Z,19.60
2023-03-12T21:35:24.030Z,19.80
2023-03-12T21:45:23.974Z,19.40
2023-03-12T21:55:24.081Z,20.00
2023-03-12T22:15:23.984Z,16.90
2023-03-12T22:25:23.975Z,20.70
2023-03-12T22:35:23.956Z,20.50
2023-03-12T22:45:23.965Z,18.60
2023-03-12T22:55:24.030Z,20.60
2023-03-12T23:05:23.998Z,20.10
2023-03-12T23:15:29.122Z,22.10
2023-03-12T23:25:23.995Z,20.90
2023-03-12T23:35:24.076Z,22.20
2023-03-12T23:45:24.060Z,20.30
2023-03-12T23:55:23.981Z,22.60
